createdAt,value
2023-02-11T00:00:03.595Z,101465.25
2023-02-11T00:01:37.252Z,101469.41
2023-02-11T00:03:09.737Z,101474.31
2023-02-11T00:04:41.715Z,101466.31
2023-02-11T00:06:13.909Z,101470.91
2023-02-11T00:07:45.839Z,101461.75
2023-02-11T00:09:17.810Z,101457.59
2023-02-11T00:10:53.577Z,101458.75
2023-02-11T00:12:25.899Z,101456.53
2023-02-11T00:13:59.273Z,101455.44
2023-02-11T00:15:31.215Z,101450.56
2023-02-11T00:17:03.184Z,101457.03
2023-02-11T00:18:36.420Z,101449.16
2023-02-11T00:20:08.656Z,101460.97
2023-02-11T00:21:41.644Z,101463.63
2023-02-11T00:23:14.469Z,101465.22
2023-02-11T00:24:46.446Z,101461.81
2023-02-11T00:26:20.242Z,101462.66
2023-02-11T00:27:52.376Z,101463.81
2023-02-11T00:29:24.417Z,101464.22
2023-02-11T00:30:57.249Z,101460.81
2023-02-11T00:32:29.233Z,101468.06
2023-02-11T00:34:01.236Z,101463.91
2023-02-11T00:35:33.254Z,101462.00
2023-02-11T00:37:05.763Z,101460.50
2023-02-11T00:38:38.832Z,101457.84
2023-02-11T00:40:11.601Z,101459.03
2023-02-11T00:41:44.670Z,101466.56
2023-02-11T00:43:18.029Z,101473.72
2023-02-11T00:44:50.386Z,101477.88
2023-02-11T00:46:22.689Z,101465.31
2023-02-11T00:47:54.750Z,101465.31
2023-02-11T00:49:26.752Z,101468.72
2023-02-11T00:50:58.660Z,101461.91
2023-02-11T00:52:31.209Z,101461.91
2023-02-11T00:54:03.215Z,101456.25
2023-02-11T00:55:35.649Z,101458.59
2023-02-11T00:57:07.563Z,101451.03
2023-02-11T00:58:39.572Z,101453.69
2023-02-11T01:00:12.179Z,101456.38
2023-02-11T01:01:44.256Z,101458.59
2023-02-11T01:03:16.205Z,101457.84
2023-02-11T01:04:48.231Z,101457.84
2023-02-11T01:06:20.435Z,101449.88
2023-02-11T01:07:52.448Z,101450.59
2023-02-11T01:09:24.400Z,101455.09
2023-02-11T01:10:56.456Z,101451.25
2023-02-11T01:12:28.384Z,101446.69
2023-02-11T01:14:02.555Z,101451.25
2023-02-11T01:15:34.551Z,101452.00
2023-02-11T01:17:06.574Z,101440.94
2023-02-11T01:18:38.670Z,101441.66
2023-02-11T01:20:20.667Z,101432.94
2023-02-11T01:21:52.582Z,101437.13
2023-02-11T01:23:27.317Z,101442.44
2023-02-11T01:24:59.216Z,101440.09
2023-02-11T01:26:31.246Z,101433.59
2023-02-11T01:28:03.515Z,101438.59
2023-02-11T01:29:36.137Z,101441.66
2023-02-11T01:31:08.267Z,101442.09
2023-02-11T01:32:40.608Z,101445.19
2023-02-11T01:34:14.423Z,101445.19
2023-02-11T01:35:46.504Z,101436.03
2023-02-11T01:37:18.436Z,101438.69
2023-02-11T01:38:50.552Z,101449.34
2023-02-11T01:40:25.379Z,101445.94
2023-02-11T01:41:57.400Z,101446.34
2023-02-11T01:43:31.772Z,101438.78
2023-02-11T01:45:24.161Z,101437.28
2023-02-11T01:46:56.183Z,101436.22
2023-02-11T01:48:39.193Z,101439.63
2023-02-11T01:50:11.191Z,101421.41
2023-02-11T01:51:47.678Z,101423.66
2023-02-11T01:53:40.722Z,101416.31
2023-02-11T01:55:32.007Z,101414.41
2023-02-11T01:57:22.758Z,101414.41
2023-02-11T01:58:57.368Z,101416.31
2023-02-11T02:00:33.013Z,101414.41
2023-02-11T02:02:07.131Z,101420.50
2023-02-11T02:03:42.503Z,101413.34
2023-02-11T02:05:17.901Z,101414.91
2023-02-11T02:06:52.299Z,101409.59
2023-02-11T02:08:36.512Z,101413.34
2023-02-11T02:10:11.521Z,101403.13
2023-02-11T02:11:44.609Z,101410.03
2023-02-11T02:13:17.448Z,101408.94
2023-02-11T02:14:49.426Z,101407.88
2023-02-11T02:16:22.419Z,101399.25
2023-02-11T02:18:13.114Z,101404.66
2023-02-11T02:19:45.057Z,101396.03
2023-02-11T02:21:36.112Z,101400.25
2023-02-11T02:23:26.914Z,101403.31
2023-02-11T02:25:01.073Z,101395.78
2023-02-11T02:26:34.160Z,101400.75
2023-02-11T02:28:06.104Z,101399.28
2023-02-11T02:29:56.739Z,101395.44
2023-02-11T02:31:40.452Z,101385.88
2023-02-11T02:33:22.380Z,101379.47
2023-02-11T02:35:10.177Z,101381.06
2023-02-11T02:36:56.076Z,101371.91
2023-02-11T02:38:46.921Z,101368.19
2023-02-11T02:40:25.510Z,101367.88
2023-02-11T02:41:57.663Z,101377.09
2023-02-11T02:43:30.577Z,101375.28
2023-02-11T02:45:02.570Z,101368.03
2023-02-11T02:46:35.219Z,101364.22
2023-02-11T02:48:07.296Z,101353.56
2023-02-11T02:49:39.269Z,101355.50
2023-02-11T02:51:17.756Z,101350.59
2023-02-11T02:53:09.973Z,101355.56
2023-02-11T02:54:44.857Z,101351.03
2023-02-11T02:56:29.545Z,101349.13
2023-02-11T02:58:07.719Z,101352.91
2023-02-11T02:59:51.904Z,101339.22
2023-02-11T03:01:26.471Z,101342.63
2023-02-11T03:02:58.484Z,101338.03
2023-02-11T03:04:30.432Z,101335.38
2023-02-11T03:06:16.266Z,101332.41
2023-02-11T03:07:57.419Z,101341.97
2023-02-11T03:09:36.983Z,101337.81
2023-02-11T03:11:10.474Z,101328.31
2023-02-11T03:12:43.997Z,101330.69
2023-02-11T03:14:17.330Z,101328.84
2023-02-11T03:15:51.307Z,101320.88
2023-02-11T03:17:24.032Z,101316.41
2023-02-11T03:18:59.739Z,101326.69
2023-02-11T03:20:33.100Z,101320.66
2023-02-11T03:22:07.526Z,101322.22
2023-02-11T03:23:41.566Z,101320.78
2023-02-11T03:25:13.903Z,101317.81
2023-02-11T03:26:56.602Z,101319.38
2023-02-11T03:28:28.605Z,101326.31
2023-02-11T03:30:09.993Z,101333.94
2023-02-11T03:31:51.575Z,101330.22
2023-02-11T03:33:29.387Z,101330.53
2023-02-11T03:35:01.419Z,101330.09
2023-02-11T03:36:55.571Z,101330.88
2023-02-11T03:38:32.545Z,101324.72
2023-02-11T03:40:06.487Z,101316.34
2023-02-11T03:41:39.200Z,101320.88
2023-02-11T03:43:22.776Z,101325.44
2023-02-11T03:44:58.614Z,101313.75
2023-02-11T03:46:36.644Z,101312.28
2023-02-11T03:48:14.566Z,101312.69
2023-02-11T03:49:47.609Z,101306.63
2023-02-11T03:51:20.821Z,101307.34
2023-02-11T03:52:54.417Z,101300.56
2023-02-11T03:54:30.383Z,101300.56
2023-02-11T03:56:05.185Z,101297.91
2023-02-11T03:57:37.597Z,101290.25
2023-02-11T03:59:09.517Z,101289.50
2023-02-11T04:00:42.597Z,101289.91
2023-02-11T04:02:14.550Z,101287.25
2023-02-11T04:03:46.515Z,101285.34
2023-02-11T04:05:18.720Z,101280.03
2023-02-11T04:06:50.722Z,101276.53
2023-02-11T04:08:22.671Z,101271.97
2023-02-11T04:09:54.758Z,101279.50
2023-02-11T04:11:26.805Z,101278.69
2023-02-11T04:12:59.245Z,101269.91
2023-02-11T04:14:31.162Z,101267.56
2023-02-11T04:16:03.319Z,101268.94
2023-02-11T04:17:37.101Z,101267.03
2023-02-11T04:19:09.142Z,101270.44
2023-02-11T04:20:41.119Z,101267.38
2023-02-11T04:22:13.134Z,101268.13
2023-02-11T04:23:45.050Z,101265.88
2023-02-11T04:25:17.211Z,101270.03
2023-02-11T04:26:49.150Z,101271.59
2023-02-11T04:28:21.291Z,101268.63
2023-02-11T04:29:54.223Z,101269.38
2023-02-11T04:31:26.371Z,101268.63
2023-02-11T04:32:58.746Z,101273.22
2023-02-11T04:34:30.860Z,101267.56
2023-02-11T04:36:02.773Z,101272.56
2023-02-11T04:37:35.689Z,101277.50
2023-02-11T04:39:07.750Z,101275.28
2023-02-11T04:40:40.061Z,101278.69
2023-02-11T04:42:12.279Z,101280.91
2023-02-11T04:43:44.224Z,101287.34
2023-02-11T04:45:16.170Z,101289.56
2023-02-11T04:46:48.292Z,101286.50
2023-02-11T04:48:20.356Z,101284.59
2023-02-11T04:49:52.381Z,101278.84
2023-02-11T04:51:24.501Z,101269.69
2023-02-11T04:52:56.417Z,101272.03
2023-02-11T04:54:28.346Z,101269.69
2023-02-11T04:56:00.420Z,101271.94
2023-02-11T04:57:32.404Z,101262.81
2023-02-11T04:59:04.519Z,101266.94
2023-02-11T05:00:36.542Z,101265.03
2023-02-11T05:02:08.544Z,101267.59
2023-02-11T05:03:40.904Z,101274.41
2023-02-11T05:05:12.959Z,101264.09
2023-02-11T05:06:44.913Z,101263.25
2023-02-11T05:08:16.862Z,101266.22
2023-02-11T05:09:48.812Z,101258.56
2023-02-11T05:11:22.569Z,101258.91
2023-02-11T05:12:56.002Z,101264.13
2023-02-11T05:14:28.230Z,101266.34
2023-02-11T05:16:00.192Z,101270.31
2023-02-11T05:17:32.134Z,101264.06
2023-02-11T05:19:04.409Z,101256.31
2023-02-11T05:20:38.196Z,101265.22
2023-02-11T05:22:10.196Z,101271.09
2023-02-11T05:23:42.355Z,101259.91
2023-02-11T05:25:14.261Z,101258.63
2023-02-11T05:26:46.283Z,101264.19
2023-02-11T05:28:18.240Z,101261.44
2023-02-11T05:29:50.149Z,101259.38
2023-02-11T05:31:22.112Z,101258.84
2023-02-11T05:32:54.061Z,101252.69
2023-02-11T05:34:26.052Z,101265.06
2023-02-11T05:35:59.486Z,101259.19
2023-02-11T05:37:31.474Z,101268.88
2023-02-11T05:39:03.791Z,101272.19
2023-02-11T05:40:35.728Z,101272.38
2023-02-11T05:42:07.728Z,101266.59
2023-02-11T05:43:39.846Z,101274.94
2023-02-11T05:45:11.889Z,101269.16
2023-02-11T05:46:43.934Z,101268.53
2023-02-11T05:48:16.469Z,101271.81
2023-02-11T05:49:48.758Z,101266.09
2023-02-11T05:51:20.848Z,101268.75
2023-02-11T05:52:52.866Z,101263.41
2023-02-11T05:54:25.079Z,101258.09
2023-02-11T05:55:57.534Z,101256.16
2023-02-11T05:57:29.522Z,101248.59
2023-02-11T05:59:01.519Z,101252.75
2023-02-11T06:00:33.915Z,101252.00
2023-02-11T06:02:07.979Z,101250.84
2023-02-11T06:03:40.019Z,101258.41
2023-02-11T06:05:12.050Z,101253.06
2023-02-11T06:06:43.986Z,101253.81
2023-02-11T06:08:15.924Z,101253.06
2023-02-11T06:09:47.943Z,101243.59
2023-02-11T06:11:20.354Z,101237.50
2023-02-11T06:12:52.596Z,101237.50
2023-02-11T06:14:24.703Z,101230.25
2023-02-11T06:15:57.444Z,101233.66
2023-02-11T06:17:33.766Z,101235.91
2023-02-11T06:19:06.037Z,101228.97
2023-02-11T06:20:40.866Z,101224.69
2023-02-11T06:22:12.832Z,101221.91
2023-02-11T06:23:44.885Z,101218.38
2023-02-11T06:25:17.022Z,101207.16
2023-02-11T06:26:49.006Z,101206.31
2023-02-11T06:28:21.126Z,101202.63
2023-02-11T06:29:53.087Z,101194.84
2023-02-11T06:31:25.370Z,101191.63
2023-02-11T06:32:57.409Z,101183.78
2023-02-11T06:34:29.415Z,101188.72
2023-02-11T06:36:01.721Z,101183.66
2023-02-11T06:37:34.588Z,101187.41
2023-02-11T06:39:06.998Z,101193.78
2023-02-11T06:40:39.018Z,101188.63
2023-02-11T06:42:11.023Z,101184.97
2023-02-11T06:43:43.453Z,101184.84
2023-02-11T06:45:15.377Z,101184.59
2023-02-11T06:46:47.667Z,101185.97
2023-02-11T06:48:19.738Z,101190.72
2023-02-11T06:49:52.100Z,101203.50
2023-02-11T06:51:24.048Z,101190.75
2023-02-11T06:52:56.043Z,101196.41
2023-02-11T06:54:28.095Z,101192.09
2023-02-11T06:56:04.521Z,101186.31
2023-02-11T06:57:36.475Z,101179.38
2023-02-11T06:59:08.591Z,101193.63
2023-02-11T07:00:40.632Z,101187.72
2023-02-11T07:02:12.680Z,101185.97
2023-02-11T07:03:45.444Z,101192.03
2023-02-11T07:05:17.521Z,101184.06
2023-02-11T07:06:49.449Z,101186.31
2023-02-11T07:08:21.360Z,101186.63
2023-02-11T07:09:53.330Z,101193.47
2023-02-11T07:11:27.020Z,101185.31
2023-02-11T07:12:58.968Z,101189.78
2023-02-11T07:14:30.997Z,101188.56
2023-02-11T07:16:07.168Z,101182.47
2023-02-11T07:17:39.230Z,101181.13
2023-02-11T07:19:11.178Z,101175.28
2023-02-11T07:20:55.557Z,101173.66
2023-02-11T07:22:43.223Z,101175.81
2023-02-11T07:24:15.312Z,101174.69
2023-02-11T07:25:47.202Z,101180.41
2023-02-11T07:27:19.451Z,101175.69
2023-02-11T07:28:51.974Z,101174.38
2023-02-11T07:30:23.973Z,101179.16
2023-02-11T07:31:55.978Z,101170.25
2023-02-11T07:33:28.066Z,101178.09
2023-02-11T07:35:00.114Z,101174.25
2023-02-11T07:36:32.424Z,101180.63
2023-02-11T07:38:04.694Z,101180.22
2023-02-11T07:39:36.641Z,101186.09
2023-02-11T07:41:13.621Z,101179.25
2023-02-11T07:42:45.611Z,101176.97
2023-02-11T07:44:17.574Z,101176.38
2023-02-11T07:45:49.862Z,101182.78
2023-02-11T07:47:21.935Z,101187.06
2023-02-11T07:48:54.010Z,101178.31
2023-02-11T07:50:26.120Z,101186.19
2023-02-11T07:51:58.199Z,101192.53
2023-02-11T07:53:30.176Z,101185.28
2023-02-11T07:55:04.850Z,101192.28
2023-02-11T07:56:37.020Z,101197.28
2023-02-11T07:58:09.006Z,101204.72
2023-02-11T07:59:40.982Z,101211.44
2023-02-11T08:01:14.279Z,101210.00
2023-02-11T08:02:46.242Z,101217.84
2023-02-11T08:04:18.308Z,101215.69
2023-02-11T08:05:50.473Z,101212.06
2023-02-11T08:07:22.654Z,101211.13
2023-02-11T08:08:54.633Z,101213.84
2023-02-11T08:10:26.694Z,101212.22
2023-02-11T08:11:58.622Z,101213.25
2023-02-11T08:13:30.572Z,101215.25
2023-02-11T08:15:02.517Z,101203.34
2023-02-11T08:16:36.057Z,101211.44
2023-02-11T08:18:08.691Z,101212.00
2023-02-11T08:19:40.756Z,101210.81
2023-02-11T08:21:12.710Z,101214.06
2023-02-11T08:22:44.668Z,101206.72
2023-02-11T08:24:16.846Z,101213.88
2023-02-11T08:25:48.871Z,101209.78
2023-02-11T08:27:20.834Z,101212.25
2023-02-11T08:28:53.798Z,101214.47
2023-02-11T08:30:27.467Z,101214.00
2023-02-11T08:31:59.905Z,101213.31
2023-02-11T08:33:31.831Z,101217.69
2023-02-11T08:35:03.960Z,101218.69
2023-02-11T08:36:36.709Z,101214.03
2023-02-11T08:38:09.571Z,101216.25
2023-02-11T08:39:41.505Z,101213.81
2023-02-11T08:41:16.957Z,101203.53
2023-02-11T08:42:48.985Z,101203.06
2023-02-11T08:44:21.524Z,101206.72
2023-02-11T08:45:53.691Z,101206.00
2023-02-11T08:47:25.836Z,101200.59
2023-02-11T08:48:57.828Z,101205.72
2023-02-11T08:50:30.101Z,101206.91
2023-02-11T08:52:04.310Z,101202.50
2023-02-11T08:53:37.235Z,101198.31
2023-02-11T08:55:09.244Z,101197.78
2023-02-11T08:56:41.326Z,101193.63
2023-02-11T08:58:13.379Z,101191.34
2023-02-11T08:59:45.418Z,101194.50
2023-02-11T09:01:17.477Z,101202.56
2023-02-11T09:02:49.560Z,101200.31
2023-02-11T09:04:21.553Z,101201.22
2023-02-11T09:05:53.920Z,101199.00
2023-02-11T09:07:25.947Z,101190.88
2023-02-11T09:08:58.391Z,101201.38
2023-02-11T09:10:30.309Z,101194.22
2023-02-11T09:12:02.337Z,101194.88
2023-02-11T09:13:34.322Z,101190.47
2023-02-11T09:15:06.752Z,101184.81
2023-02-11T09:16:38.811Z,101179.44
2023-02-11T09:18:10.924Z,101184.28
2023-02-11T09:19:42.945Z,101180.13
2023-02-11T09:21:15.956Z,101177.97
2023-02-11T09:22:48.285Z,101182.41
2023-02-11T09:24:20.354Z,101189.59
2023-02-11T09:25:52.595Z,101192.09
2023-02-11T09:27:24.804Z,101186.09
2023-02-11T09:28:57.088Z,101183.00
2023-02-11T09:30:29.151Z,101165.69
2023-02-11T09:32:01.325Z,101175.28
2023-02-11T09:33:33.566Z,101169.44
2023-02-11T09:35:05.689Z,101182.47
2023-02-11T09:36:38.902Z,101174.38
2023-02-11T09:38:10.808Z,101169.50
2023-02-11T09:39:42.853Z,101166.53
2023-02-11T09:41:23.689Z,101177.56
2023-02-11T09:43:08.945Z,101174.63
2023-02-11T09:44:44.280Z,101185.91
2023-02-11T09:46:17.237Z,101180.97
2023-02-11T09:47:51.186Z,101176.34
2023-02-11T09:49:26.525Z,101178.53
2023-02-11T09:51:00.501Z,101175.56
2023-02-11T09:52:53.063Z,101177.06
2023-02-11T09:54:31.073Z,101162.59
2023-02-11T09:56:09.857Z,101167.50
2023-02-11T09:57:41.811Z,101165.56
2023-02-11T09:59:15.216Z,101159.38
2023-02-11T10:00:50.003Z,101160.84
2023-02-11T10:02:29.596Z,101151.31
2023-02-11T10:04:20.008Z,101162.31
2023-02-11T10:06:07.134Z,101148.13
2023-02-11T10:07:48.368Z,101152.25
2023-02-11T10:09:35.663Z,101151.78
2023-02-11T10:11:30.702Z,101153.28
2023-02-11T10:13:17.096Z,101144.97
2023-02-11T10:14:49.079Z,101147.66
2023-02-11T10:16:36.250Z,101142.75
2023-02-11T10:18:11.241Z,101138.16
2023-02-11T10:20:02.263Z,101131.75
2023-02-11T10:21:37.128Z,101129.53
2023-02-11T10:23:15.248Z,101132.25
2023-02-11T10:24:54.957Z,101128.06
2023-02-11T10:26:29.727Z,101131.00
2023-02-11T10:28:09.978Z,101124.16
2023-02-11T10:29:45.578Z,101121.91
2023-02-11T10:31:34.202Z,101115.78
2023-02-11T10:33:12.156Z,101113.88
2023-02-11T10:34:44.135Z,101101.34
2023-02-11T10:36:17.875Z,101110.44
2023-02-11T10:37:50.154Z,101099.88
2023-02-11T10:39:23.149Z,101100.13
2023-02-11T10:40:55.348Z,101097.41
2023-02-11T10:42:27.485Z,101104.78
2023-02-11T10:44:02.373Z,101100.63
2023-02-11T10:45:39.338Z,101100.38
2023-02-11T10:47:24.045Z,101108.75
2023-02-11T10:48:56.024Z,101109.19
2023-02-11T10:50:34.891Z,101110.91
2023-02-11T10:52:15.213Z,101102.09
2023-02-11T10:53:48.333Z,101111.41
2023-02-11T10:55:21.921Z,101104.56
2023-02-11T10:56:59.139Z,101105.06
2023-02-11T10:58:32.534Z,101109.22
2023-02-11T11:00:34.225Z,101096.16
2023-02-11T11:02:19.230Z,101094.88
2023-02-11T11:03:52.098Z,101089.91
2023-02-11T11:05:29.285Z,101083.97
2023-02-11T11:07:19.672Z,101077.34
2023-02-11T11:08:51.770Z,101079.13
2023-02-11T11:10:29.316Z,101067.56
2023-02-11T11:12:01.318Z,101065.59
2023-02-11T11:13:34.595Z,101057.50
2023-02-11T11:15:19.874Z,101048.91
2023-02-11T11:16:55.821Z,101057.97
2023-02-11T11:18:27.812Z,101056.94
2023-02-11T11:20:18.424Z,101063.75
2023-02-11T11:21:51.276Z,101050.88
2023-02-11T11:23:24.800Z,101051.03
2023-02-11T11:24:57.545Z,101042.69
2023-02-11T11:26:49.857Z,101042.84
2023-02-11T11:28:23.946Z,101037.13
2023-02-11T11:29:56.495Z,101025.78
2023-02-11T11:31:28.623Z,101025.97
2023-02-11T11:33:01.008Z,101017.03
2023-02-11T11:34:42.043Z,101012.09
2023-02-11T11:36:18.075Z,101012.50
2023-02-11T11:37:55.473Z,101007.47
2023-02-11T11:39:31.466Z,101025.34
2023-02-11T11:41:20.737Z,101015.69
2023-02-11T11:43:06.854Z,101005.53
2023-02-11T11:44:39.933Z,101014.78
2023-02-11T11:46:12.366Z,101002.13
2023-02-11T11:47:48.628Z,101008.00
2023-02-11T11:49:43.649Z,100995.09
2023-02-11T11:51:16.159Z,100989.22
2023-02-11T11:52:54.062Z,100978.00
2023-02-11T11:54:27.944Z,100982.16
2023-02-11T11:56:07.363Z,100986.03
2023-02-11T11:57:39.556Z,100974.91
2023-02-11T11:59:17.165Z,100965.03
2023-02-11T12:00:54.963Z,100962.91
2023-02-11T12:02:26.906Z,100964.50
2023-02-11T12:04:04.696Z,100956.72
2023-02-11T12:05:36.637Z,100958.78
2023-02-11T12:07:25.879Z,100953.66
2023-02-11T12:09:18.270Z,100971.44
2023-02-11T12:10:53.236Z,100973.19
2023-02-11T12:12:26.763Z,100953.94
2023-02-11T12:14:04.304Z,100951.88
2023-02-11T12:15:41.920Z,100956.81
2023-02-11T12:17:20.045Z,100943.91
2023-02-11T12:18:51.956Z,100952.22
2023-02-11T12:20:35.333Z,100953.63
2023-02-11T12:22:16.153Z,100945.53
2023-02-11T12:24:00.403Z,100943.84
2023-02-11T12:25:41.417Z,100943.16
2023-02-11T12:27:18.607Z,100942.25
2023-02-11T12:28:59.656Z,100937.69
2023-02-11T12:30:34.752Z,100945.56
2023-02-11T12:32:09.765Z,100942.44
2023-02-11T12:33:57.027Z,100941.31
2023-02-11T12:35:28.986Z,100932.25
2023-02-11T12:37:08.023Z,100940.91
2023-02-11T12:38:49.463Z,100941.09
2023-02-11T12:40:21.992Z,100936.94
2023-02-11T12:42:15.506Z,100934.22
2023-02-11T12:43:47.532Z,100944.25
2023-02-11T12:45:28.404Z,100943.03
2023-02-11T12:47:00.336Z,100948.44
2023-02-11T12:48:35.897Z,100946.13
2023-02-11T12:50:20.308Z,100943.09
2023-02-11T12:51:59.259Z,100936.84
2023-02-11T12:53:49.963Z,100941.09
2023-02-11T12:55:29.682Z,100950.38
2023-02-11T12:57:27.996Z,100947.06
2023-02-11T12:59:00.858Z,100937.88
2023-02-11T13:00:42.647Z,100927.84
2023-02-11T13:02:19.551Z,100928.34
2023-02-11T13:03:56.014Z,100917.50
2023-02-11T13:05:33.294Z,100924.31
2023-02-11T13:07:16.258Z,100932.53
2023-02-11T13:08:53.701Z,100925.75
2023-02-11T13:10:27.716Z,100927.88
2023-02-11T13:12:20.798Z,100928.78
2023-02-11T13:13:56.119Z,100931.00
2023-02-11T13:15:28.391Z,100937.66
2023-02-11T13:17:00.613Z,100935.69
2023-02-11T13:18:37.930Z,100941.44
2023-02-11T13:20:20.702Z,100943.41
2023-02-11T13:22:11.304Z,100931.31
2023-02-11T13:23:49.483Z,100937.66
2023-02-11T13:25:28.167Z,100950.94
2023-02-11T13:27:18.761Z,100947.16
2023-02-11T13:28:54.090Z,100947.59
2023-02-11T13:30:29.088Z,100946.53
2023-02-11T13:32:11.724Z,100949.53
2023-02-11T13:33:44.460Z,100950.28
2023-02-11T13:35:26.908Z,100952.44
2023-02-11T13:36:58.903Z,100958.44
2023-02-11T13:38:31.557Z,100963.94
2023-02-11T13:40:19.545Z,100957.38
2023-02-11T13:42:01.994Z,100957.16
2023-02-11T13:43:35.321Z,100951.09
2023-02-11T13:45:17.581Z,100950.75
2023-02-11T13:47:04.801Z,100944.13
2023-02-11T13:48:38.169Z,100940.78
2023-02-11T13:50:22.638Z,100935.66
2023-02-11T13:51:55.670Z,100933.47
2023-02-11T13:53:27.956Z,100932.00
2023-02-11T13:55:12.154Z,100932.53
2023-02-11T13:56:46.349Z,100929.75
2023-02-11T13:58:20.174Z,100925.69
2023-02-11T13:59:56.935Z,100923.84
2023-02-11T14:02:19.556Z,100918.56
2023-02-11T14:04:38.672Z,100914.50
2023-02-11T14:06:29.180Z,100926.50
2023-02-11T14:08:29.062Z,100925.47
2023-02-11T14:10:01.070Z,100936.31
2023-02-11T14:11:33.355Z,100940.59
2023-02-11T14:13:07.256Z,100944.44
2023-02-11T14:14:58.816Z,100942.38
2023-02-11T14:16:38.378Z,100948.91
2023-02-11T14:18:40.389Z,100943.88
2023-02-11T14:20:38.571Z,100938.59
2023-02-11T14:22:11.912Z,100932.81
2023-02-11T14:23:44.359Z,100931.13
2023-02-11T14:25:19.994Z,100933.41
2023-02-11T14:26:55.678Z,100931.94
2023-02-11T14:28:32.949Z,100921.16
2023-02-11T14:30:08.141Z,100919.50
2023-02-11T14:31:55.043Z,100924.69
2023-02-11T14:33:27.058Z,100932.28
2023-02-11T14:34:59.176Z,100931.84
2023-02-11T14:36:43.763Z,100935.78
2023-02-11T14:38:35.189Z,100935.56
2023-02-11T14:40:30.274Z,100924.72
2023-02-11T14:42:02.766Z,100920.50
2023-02-11T14:43:45.400Z,100904.25
2023-02-11T14:45:20.090Z,100907.69
2023-02-11T14:46:53.509Z,100905.50
2023-02-11T14:48:35.186Z,100897.38
2023-02-11T14:50:09.864Z,100905.78
2023-02-11T14:51:42.082Z,100909.75
2023-02-11T14:53:16.178Z,100905.59
2023-02-11T14:54:49.526Z,100896.00
2023-02-11T14:56:24.647Z,100906.84
2023-02-11T14:58:13.999Z,100903.38
2023-02-11T14:59:59.333Z,100897.75
2023-02-11T15:01:34.034Z,100894.84
2023-02-11T15:03:06.061Z,100896.03
2023-02-11T15:04:40.453Z,100896.13
2023-02-11T15:06:14.953Z,100892.97
2023-02-11T15:07:48.548Z,100890.09
2023-02-11T15:09:38.520Z,100888.22
2023-02-11T15:11:12.215Z,100883.34
2023-02-11T15:12:48.791Z,100869.41
2023-02-11T15:14:24.118Z,100879.53
2023-02-11T15:15:58.704Z,100881.06
2023-02-11T15:17:31.946Z,100873.47
2023-02-11T15:19:05.168Z,100871.84
2023-02-11T15:20:37.261Z,100868.94
2023-02-11T15:22:18.522Z,100859.44
2023-02-11T15:23:57.916Z,100860.22
2023-02-11T15:25:32.317Z,100852.38
2023-02-11T15:27:08.500Z,100855.88
2023-02-11T15:28:48.989Z,100852.50
2023-02-11T15:30:23.796Z,100848.88
2023-02-11T15:32:08.588Z,100852.13
2023-02-11T15:33:40.795Z,100839.16
2023-02-11T15:35:13.975Z,100837.75
2023-02-11T15:36:46.156Z,100823.56
2023-02-11T15:38:18.504Z,100827.75
2023-02-11T15:39:51.265Z,100825.84
2023-02-11T15:41:37.368Z,100828.06
2023-02-11T15:43:10.139Z,100843.78
2023-02-11T15:44:42.160Z,100845.56
2023-02-11T15:46:18.758Z,100835.03
2023-02-11T15:47:52.277Z,100837.47
2023-02-11T15:49:24.993Z,100827.69
2023-02-11T15:51:01.146Z,100832.63
2023-02-11T15:52:33.587Z,100828.22
2023-02-11T15:54:07.879Z,100827.50
2023-02-11T15:55:41.125Z,100824.31
2023-02-11T15:57:13.756Z,100827.03
2023-02-11T15:58:47.606Z,100827.31
2023-02-11T16:00:21.566Z,100835.69
2023-02-11T16:01:54.508Z,100839.16
2023-02-11T16:03:28.872Z,100836.44
2023-02-11T16:05:03.850Z,100840.88
2023-02-11T16:06:38.770Z,100832.09
2023-02-11T16:08:21.351Z,100826.72
2023-02-11T16:09:57.521Z,100834.31
2023-02-11T16:11:38.414Z,100818.19
2023-02-11T16:13:10.310Z,100826.53
2023-02-11T16:14:42.399Z,100840.25
2023-02-11T16:16:33.538Z,100839.78
2023-02-11T16:18:14.497Z,100832.69
2023-02-11T16:19:47.551Z,100831.00
2023-02-11T16:21:21.515Z,100837.34
2023-02-11T16:22:53.713Z,100843.00
2023-02-11T16:24:30.677Z,100841.06
2023-02-11T16:26:07.059Z,100844.50
2023-02-11T16:27:40.886Z,100843.03
2023-02-11T16:29:22.778Z,100843.56
2023-02-11T16:30:55.689Z,100847.72
2023-02-11T16:32:28.737Z,100841.84
2023-02-11T16:34:00.746Z,100832.78
2023-02-11T16:35:32.800Z,100844.78
2023-02-11T16:37:05.578Z,100831.31
2023-02-11T16:38:37.495Z,100838.16
2023-02-11T16:40:09.909Z,100843.31
2023-02-11T16:41:41.875Z,100834.50
2023-02-11T16:43:19.923Z,100837.19
2023-02-11T16:44:51.974Z,100837.69
2023-02-11T16:46:23.991Z,100831.56
2023-02-11T16:47:56.046Z,100834.50
2023-02-11T16:49:30.021Z,100834.50
2023-02-11T16:51:02.125Z,100839.66
2023-02-11T16:52:36.000Z,100836.19
2023-02-11T16:54:11.608Z,100837.22
2023-02-11T16:55:43.634Z,100835.47
2023-02-11T16:57:17.504Z,100838.41
2023-02-11T16:58:49.485Z,100851.13
2023-02-11T17:00:21.766Z,100844.22
2023-02-11T17:01:55.047Z,100843.75
2023-02-11T17:03:29.963Z,100854.28
2023-02-11T17:05:04.032Z,100852.06
2023-02-11T17:06:36.060Z,100843.97
2023-02-11T17:08:09.487Z,100838.53
2023-02-11T17:09:43.403Z,100851.47
2023-02-11T17:11:16.938Z,100842.19
2023-02-11T17:12:49.674Z,100841.94
2023-02-11T17:14:21.654Z,100858.31
2023-02-11T17:15:54.081Z,100853.41
2023-02-11T17:17:26.457Z,100858.31
2023-02-11T17:18:58.505Z,100864.91
2023-02-11T17:20:30.644Z,100866.63
2023-02-11T17:22:03.343Z,100864.91
2023-02-11T17:23:35.506Z,100872.25
2023-02-11T17:25:07.913Z,100858.31
2023-02-11T17:26:40.005Z,100862.94
2023-02-11T17:28:12.269Z,100853.16
2023-02-11T17:29:44.425Z,100853.94
2023-02-11T17:31:16.694Z,100862.97
2023-02-11T17:32:49.288Z,100853.44
2023-02-11T17:34:21.864Z,100851.47
2023-02-11T17:35:54.342Z,100849.44
2023-02-11T17:37:26.381Z,100854.38
2023-02-11T17:38:58.954Z,100865.81
2023-02-11T17:40:30.925Z,100857.97
2023-02-11T17:42:02.990Z,100866.25
2023-02-11T17:43:35.082Z,100865.75
2023-02-11T17:45:07.523Z,100863.78
2023-02-11T17:46:39.680Z,100859.81
2023-02-11T17:48:11.712Z,100860.31
2023-02-11T17:49:43.655Z,100863.47
2023-02-11T17:51:21.970Z,100858.31
2023-02-11T17:52:53.883Z,100845.63
2023-02-11T17:54:26.125Z,100849.53
2023-02-11T17:55:58.210Z,100854.41
2023-02-11T17:57:30.341Z,100852.47
2023-02-11T17:59:03.006Z,100852.72
2023-02-11T18:00:35.088Z,100853.72
2023-02-11T18:02:07.627Z,100853.25
2023-02-11T18:03:39.650Z,100847.91
2023-02-11T18:05:11.778Z,100852.56
2023-02-11T18:06:44.254Z,100838.91
2023-02-11T18:08:16.265Z,100843.78